Alamo, Texas
Current Conditions -  °F | °C
As of 9:53 PM on Tuesday 21 Oct 2014 (Local Time) from KMFE Reporting Station
Clear Clear  
Wind Chill: 75°   Ceiling: Unl
Heat Index: 75°   Visibility: 9mi
Dew Point: 72°   Wind: 6mph
Humidity: 90%   Direction: 30°NNE
Pressure: 29.97"   Gusts: NA
Location:  26.18°N, 98.12°W
Report Text: KMFE 220253Z 03005KT 9SM CLR 24/22 A2997 RMK AO2 SLP147 T02390222 51017
Loading
Personal Weather Stations






























Interactive Weather Map New forecast layout! Learn more

10-Day Weather Forecast

Advertisements
Track Severe Weather on mobile